createdAt,value
2022-10-13T00:00:50.293Z,8.02
2022-10-13T00:03:18.119Z,8.00
2022-10-13T00:05:47.476Z,8.68
2022-10-13T00:08:17.337Z,10.85
2022-10-13T00:10:44.579Z,9.57
2022-10-13T00:13:12.316Z,9.07
2022-10-13T00:15:44.757Z,10.97
2022-10-13T00:18:12.136Z,10.80
2022-10-13T00:20:48.774Z,10.38
2022-10-13T00:23:16.758Z,10.23
2022-10-13T00:25:48.792Z,9.40
2022-10-13T00:28:18.690Z,9.87
2022-10-13T00:30:46.843Z,9.55
2022-10-13T00:33:14.363Z,10.32
2022-10-13T00:35:46.336Z,10.57
2022-10-13T00:38:13.739Z,10.02
2022-10-13T00:40:55.660Z,9.33
2022-10-13T00:43:46.976Z,9.93
2022-10-13T00:46:14.975Z,10.10
2022-10-13T00:48:43.285Z,8.70
2022-10-13T00:51:12.148Z,9.88
2022-10-13T00:53:40.936Z,9.93
2022-10-13T00:56:11.419Z,9.95
2022-10-13T00:58:40.616Z,9.90
2022-10-13T01:01:08.322Z,9.60
2022-10-13T01:03:36.167Z,10.23
2022-10-13T01:06:05.195Z,10.07
2022-10-13T01:08:33.501Z,10.13
2022-10-13T01:11:09.152Z,9.30
2022-10-13T01:13:46.484Z,9.35
2022-10-13T01:16:22.296Z,9.27
2022-10-13T01:18:52.532Z,9.80
2022-10-13T01:21:31.933Z,9.93
2022-10-13T01:24:02.120Z,10.60
2022-10-13T01:26:40.751Z,11.52
2022-10-13T01:29:16.549Z,10.43
2022-10-13T01:32:18.292Z,10.40
2022-10-13T01:35:12.050Z,11.10
2022-10-13T01:37:47.988Z,10.50
2022-10-13T01:40:39.100Z,9.90
2022-10-13T01:43:14.408Z,11.25
2022-10-13T01:46:07.752Z,11.23
2022-10-13T01:48:38.088Z,11.60
2022-10-13T01:51:09.189Z,11.13
2022-10-13T01:53:36.900Z,10.25
2022-10-13T01:56:03.898Z,11.05
2022-10-13T01:58:34.534Z,10.77
2022-10-13T02:01:20.011Z,10.88
2022-10-13T02:04:24.589Z,10.23
2022-10-13T02:07:03.940Z,10.65
2022-10-13T02:09:43.815Z,10.30
2022-10-13T02:12:19.408Z,12.07
2022-10-13T02:14:49.320Z,10.82
2022-10-13T02:17:17.238Z,11.10
2022-10-13T02:19:45.355Z,11.75
2022-10-13T02:22:15.293Z,10.52
2022-10-13T02:24:42.396Z,10.00
2022-10-13T02:27:09.535Z,9.52
2022-10-13T02:29:53.686Z,9.18
2022-10-13T02:32:21.612Z,9.13
2022-10-13T02:34:49.736Z,8.68
2022-10-13T02:37:17.291Z,8.53
2022-10-13T02:39:44.131Z,8.70
2022-10-13T02:42:11.080Z,10.38
2022-10-13T02:44:38.117Z,9.70
2022-10-13T02:47:05.237Z,9.65
2022-10-13T02:49:32.178Z,8.40
2022-10-13T02:51:59.430Z,8.85
2022-10-13T02:54:26.197Z,8.90
2022-10-13T02:56:52.997Z,9.75
2022-10-13T02:59:20.277Z,9.38
2022-10-13T03:01:47.132Z,9.53
2022-10-13T03:04:13.912Z,10.15
2022-10-13T03:06:40.793Z,10.95
2022-10-13T03:09:07.700Z,10.35
2022-10-13T03:11:34.740Z,11.40
2022-10-13T03:14:02.903Z,10.30
2022-10-13T03:16:29.719Z,11.07
2022-10-13T03:18:56.680Z,9.63
2022-10-13T03:21:23.901Z,10.73
2022-10-13T03:23:50.873Z,11.43
2022-10-13T03:26:17.770Z,11.87
2022-10-13T03:28:49.445Z,9.75
2022-10-13T03:31:17.565Z,10.35
2022-10-13T03:33:45.482Z,11.13
2022-10-13T03:36:13.436Z,10.73
2022-10-13T03:38:40.492Z,11.33
2022-10-13T03:41:09.937Z,10.63
2022-10-13T03:43:37.101Z,11.52
2022-10-13T03:46:05.987Z,10.02
2022-10-13T03:48:34.053Z,10.43
2022-10-13T03:51:04.874Z,10.17
2022-10-13T03:53:31.673Z,10.52
2022-10-13T03:55:58.610Z,11.00
2022-10-13T03:58:25.994Z,10.57
2022-10-13T04:00:52.859Z,11.35
2022-10-13T04:03:20.062Z,9.90
2022-10-13T04:05:47.679Z,10.57
2022-10-13T04:08:14.835Z,10.95
2022-10-13T04:10:42.406Z,15.52
2022-10-13T04:13:09.483Z,14.13
2022-10-13T04:15:38.229Z,14.20
2022-10-13T04:18:07.296Z,11.43
2022-10-13T04:20:40.771Z,11.50
2022-10-13T04:23:07.914Z,14.35
2022-10-13T04:25:36.355Z,22.25
2022-10-13T04:28:05.578Z,14.33
2022-10-13T04:30:38.001Z,13.90
2022-10-13T04:33:05.795Z,13.55
2022-10-13T04:35:33.329Z,12.18
2022-10-13T04:38:00.380Z,12.00
2022-10-13T04:40:27.400Z,12.70
2022-10-13T04:42:54.598Z,13.57
2022-10-13T04:45:21.697Z,12.55
2022-10-13T04:47:49.016Z,13.18
2022-10-13T04:50:16.056Z,12.48
2022-10-13T04:52:42.917Z,12.50
2022-10-13T04:55:10.012Z,12.77
2022-10-13T04:57:37.233Z,11.27
2022-10-13T05:00:05.437Z,12.32
2022-10-13T05:02:32.275Z,9.98
2022-10-13T05:04:59.192Z,11.47
2022-10-13T05:07:25.947Z,11.27
2022-10-13T05:09:53.055Z,11.73
2022-10-13T05:12:20.371Z,12.80
2022-10-13T05:14:47.592Z,11.05
2022-10-13T05:17:14.596Z,13.33
2022-10-13T05:19:41.677Z,10.75
2022-10-13T05:22:08.373Z,9.93
2022-10-13T05:24:35.469Z,11.07
2022-10-13T05:27:09.121Z,10.90
2022-10-13T05:29:37.290Z,11.30
2022-10-13T05:32:04.457Z,11.15
2022-10-13T05:34:31.875Z,14.05
2022-10-13T05:36:59.678Z,11.52
2022-10-13T05:39:26.575Z,12.25
2022-10-13T05:41:53.518Z,11.17
2022-10-13T05:44:21.215Z,11.02
2022-10-13T05:46:48.007Z,10.73
2022-10-13T05:49:14.937Z,10.70
2022-10-13T05:51:45.379Z,10.55
2022-10-13T05:54:21.518Z,10.70
2022-10-13T05:56:55.584Z,11.27
2022-10-13T05:59:27.156Z,10.90
2022-10-13T06:01:55.134Z,9.98
2022-10-13T06:04:32.137Z,10.80
2022-10-13T06:06:59.117Z,11.07
2022-10-13T06:09:32.580Z,10.70
2022-10-13T06:11:59.621Z,10.68
2022-10-13T06:14:26.445Z,12.02
2022-10-13T06:16:53.259Z,11.75
2022-10-13T06:19:20.357Z,10.47
2022-10-13T06:21:47.488Z,11.38
2022-10-13T06:24:14.290Z,10.00
2022-10-13T06:26:41.395Z,11.77
2022-10-13T06:29:08.269Z,11.43
2022-10-13T06:31:35.353Z,11.20
2022-10-13T06:34:02.511Z,10.93
2022-10-13T06:36:29.311Z,11.68
2022-10-13T06:38:56.399Z,12.82
2022-10-13T06:41:23.376Z,12.23
2022-10-13T06:43:50.296Z,12.83
2022-10-13T06:46:17.442Z,12.32
2022-10-13T06:48:44.744Z,12.82
2022-10-13T06:51:12.518Z,13.85
2022-10-13T06:53:39.473Z,13.20
2022-10-13T06:56:07.681Z,12.47
2022-10-13T06:58:35.857Z,12.25
2022-10-13T07:01:03.157Z,11.77
2022-10-13T07:03:30.149Z,10.70
2022-10-13T07:06:04.958Z,10.13
2022-10-13T07:08:34.847Z,10.13
2022-10-13T07:11:14.546Z,11.55
2022-10-13T07:13:46.193Z,11.27
2022-10-13T07:16:14.912Z,10.50
2022-10-13T07:18:41.977Z,10.15
2022-10-13T07:21:09.777Z,9.60
2022-10-13T07:23:36.756Z,9.63
2022-10-13T07:26:11.255Z,11.18
2022-10-13T07:28:39.112Z,9.95
2022-10-13T07:31:11.372Z,9.00
2022-10-13T07:33:38.954Z,10.90
2022-10-13T07:36:06.275Z,10.63
2022-10-13T07:38:33.246Z,8.82
2022-10-13T07:41:05.238Z,9.18
2022-10-13T07:43:32.286Z,9.30
2022-10-13T07:45:59.914Z,8.93
2022-10-13T07:48:27.496Z,9.27
2022-10-13T07:50:54.490Z,8.00
2022-10-13T07:53:21.503Z,10.50
2022-10-13T07:55:48.978Z,9.07
2022-10-13T07:58:16.044Z,8.57
2022-10-13T08:00:42.969Z,10.52
2022-10-13T08:03:10.322Z,9.38
2022-10-13T08:05:37.885Z,9.10
2022-10-13T08:08:04.834Z,9.18
2022-10-13T08:10:31.965Z,9.20
2022-10-13T08:12:58.852Z,9.82
2022-10-13T08:15:26.753Z,8.75
2022-10-13T08:17:53.871Z,8.48
2022-10-13T08:20:20.798Z,8.05
2022-10-13T08:22:47.655Z,9.07
2022-10-13T08:25:14.589Z,8.30
2022-10-13T08:27:51.132Z,8.55
2022-10-13T08:30:19.887Z,9.30
2022-10-13T08:32:46.954Z,8.70
2022-10-13T08:35:13.828Z,9.10
2022-10-13T08:37:41.012Z,8.63
2022-10-13T08:40:12.098Z,9.27
2022-10-13T08:42:44.322Z,8.30
2022-10-13T08:45:40.488Z,8.90
2022-10-13T08:48:22.021Z,8.10
2022-10-13T08:50:57.805Z,9.02
2022-10-13T08:53:43.833Z,8.95
2022-10-13T08:56:30.759Z,8.25
2022-10-13T08:58:57.914Z,8.57
2022-10-13T09:01:33.709Z,7.03
2022-10-13T09:04:32.840Z,8.10
2022-10-13T09:07:07.317Z,7.40
2022-10-13T09:09:34.435Z,7.75
2022-10-13T09:12:02.073Z,7.25
2022-10-13T09:14:32.428Z,7.87
2022-10-13T09:17:23.390Z,8.77
2022-10-13T09:20:04.515Z,8.07
2022-10-13T09:22:34.716Z,8.00
2022-10-13T09:25:07.098Z,7.68
2022-10-13T09:27:53.934Z,7.67
2022-10-13T09:30:38.658Z,7.40
2022-10-13T09:33:08.686Z,6.35
2022-10-13T09:35:37.641Z,7.10
2022-10-13T09:38:21.079Z,6.13
2022-10-13T09:41:02.573Z,7.60
2022-10-13T09:43:35.399Z,7.18
2022-10-13T09:46:11.536Z,6.38
2022-10-13T09:48:40.713Z,7.10
2022-10-13T09:51:27.491Z,6.43
2022-10-13T09:53:54.421Z,6.43
2022-10-13T09:56:37.197Z,6.15
2022-10-13T09:59:25.112Z,6.57
2022-10-13T10:01:55.911Z,6.20
2022-10-13T10:04:26.263Z,5.82
2022-10-13T10:06:53.109Z,5.33
2022-10-13T10:09:22.631Z,5.72
2022-10-13T10:11:53.174Z,5.25
2022-10-13T10:14:34.706Z,5.97
2022-10-13T10:17:26.199Z,6.38
2022-10-13T10:20:10.812Z,5.10
2022-10-13T10:23:05.259Z,6.15
2022-10-13T10:25:45.902Z,5.68
2022-10-13T10:28:34.005Z,6.85
2022-10-13T10:31:06.752Z,6.20
2022-10-13T10:33:55.117Z,5.13
2022-10-13T10:36:39.536Z,4.65
2022-10-13T10:39:32.632Z,5.32
2022-10-13T10:42:25.468Z,5.22
2022-10-13T10:44:56.485Z,5.70
2022-10-13T10:47:43.526Z,5.13
2022-10-13T10:50:15.453Z,5.03
2022-10-13T10:53:07.308Z,4.93
2022-10-13T10:55:39.984Z,5.47
2022-10-13T10:58:25.123Z,5.40
2022-10-13T11:00:56.056Z,4.90
2022-10-13T11:03:40.618Z,5.38
2022-10-13T11:06:13.274Z,4.47
2022-10-13T11:08:45.816Z,5.43
2022-10-13T11:11:26.789Z,4.28
2022-10-13T11:14:07.466Z,4.80
2022-10-13T11:16:55.954Z,5.03
2022-10-13T11:19:36.001Z,4.55
2022-10-13T11:22:02.790Z,5.00
2022-10-13T11:24:42.130Z,5.97
2022-10-13T11:27:08.989Z,5.57
2022-10-13T11:29:45.056Z,5.30
2022-10-13T11:32:44.459Z,4.55
2022-10-13T11:35:11.113Z,4.43
2022-10-13T11:38:06.114Z,4.97
2022-10-13T11:40:42.150Z,5.17
2022-10-13T11:43:17.973Z,4.72
2022-10-13T11:46:01.915Z,5.07
2022-10-13T11:48:47.275Z,4.60
2022-10-13T11:51:48.871Z,4.65
2022-10-13T11:54:47.536Z,4.80
2022-10-13T11:57:26.127Z,4.53
2022-10-13T11:59:55.676Z,4.80
2022-10-13T12:02:25.925Z,4.68
2022-10-13T12:05:24.097Z,4.45
2022-10-13T12:07:57.202Z,4.70
2022-10-13T12:10:35.876Z,4.35
2022-10-13T12:13:03.873Z,4.20
2022-10-13T12:15:35.435Z,3.92
2022-10-13T12:18:04.058Z,3.95
2022-10-13T12:20:33.131Z,3.87
2022-10-13T12:23:00.316Z,4.60
2022-10-13T12:25:30.331Z,3.80
2022-10-13T12:28:00.568Z,3.05
2022-10-13T12:30:34.819Z,3.63
2022-10-13T12:33:01.997Z,3.17
2022-10-13T12:35:31.689Z,3.22
2022-10-13T12:38:02.378Z,3.40
2022-10-13T12:40:30.155Z,3.50
2022-10-13T12:42:57.479Z,3.55
2022-10-13T12:45:31.783Z,3.43
2022-10-13T12:47:58.893Z,3.67
2022-10-13T12:50:25.673Z,3.80
2022-10-13T12:52:55.438Z,4.78
2022-10-13T12:55:23.458Z,4.18
2022-10-13T12:57:51.694Z,4.43
2022-10-13T13:00:22.492Z,3.80
2022-10-13T13:03:06.269Z,3.97
2022-10-13T13:05:34.390Z,4.00
2022-10-13T13:08:02.273Z,4.00
2022-10-13T13:10:29.514Z,4.30
2022-10-13T13:12:57.079Z,3.58
2022-10-13T13:15:37.998Z,4.85
2022-10-13T13:18:31.283Z,4.13
2022-10-13T13:20:58.654Z,4.00
2022-10-13T13:23:25.443Z,4.50
2022-10-13T13:26:24.808Z,4.20
2022-10-13T13:28:54.199Z,3.70
2022-10-13T13:31:23.716Z,3.88
2022-10-13T13:33:51.234Z,4.03
2022-10-13T13:36:19.382Z,4.10
2022-10-13T13:38:46.613Z,4.45
2022-10-13T13:41:14.127Z,3.85
2022-10-13T13:43:41.645Z,3.88
2022-10-13T13:46:16.237Z,4.03
2022-10-13T13:48:43.150Z,3.97
2022-10-13T13:51:10.971Z,3.80
2022-10-13T13:53:37.988Z,3.03
2022-10-13T13:56:05.528Z,3.28
2022-10-13T13:58:32.469Z,3.65
2022-10-13T14:01:00.365Z,4.07
2022-10-13T14:03:27.317Z,4.30
2022-10-13T14:05:54.088Z,4.70
2022-10-13T14:08:21.221Z,4.20
2022-10-13T14:10:48.128Z,5.20
2022-10-13T14:13:15.038Z,5.20
2022-10-13T14:15:42.119Z,4.65
2022-10-13T14:18:08.962Z,3.65
2022-10-13T14:20:35.777Z,3.67
2022-10-13T14:23:02.995Z,4.60
2022-10-13T14:25:29.759Z,4.60
2022-10-13T14:27:56.496Z,4.93
2022-10-13T14:30:23.925Z,4.47
2022-10-13T14:32:50.716Z,4.47
2022-10-13T14:35:17.736Z,4.53
2022-10-13T14:37:44.926Z,4.73
2022-10-13T14:40:11.800Z,4.57
2022-10-13T14:42:38.592Z,4.55
2022-10-13T14:45:06.441Z,4.55
2022-10-13T14:47:33.314Z,4.30
2022-10-13T14:50:00.243Z,4.53
2022-10-13T14:52:27.114Z,4.03
2022-10-13T14:54:54.012Z,4.90
2022-10-13T14:57:21.097Z,4.28
2022-10-13T14:59:48.402Z,4.25
2022-10-13T15:02:15.658Z,5.20
2022-10-13T15:04:42.470Z,4.60
2022-10-13T15:07:09.550Z,4.10
2022-10-13T15:09:53.208Z,4.07
2022-10-13T15:12:23.826Z,4.40
2022-10-13T15:14:50.897Z,8.60
2022-10-13T15:17:17.813Z,5.45
2022-10-13T15:19:44.816Z,4.93
2022-10-13T15:22:11.645Z,5.13
2022-10-13T15:24:38.441Z,5.90
2022-10-13T15:27:07.561Z,5.53
2022-10-13T15:29:34.535Z,5.10
2022-10-13T15:32:11.514Z,4.45
2022-10-13T15:34:41.447Z,4.35
2022-10-13T15:37:14.248Z,4.35
2022-10-13T15:39:41.097Z,4.67
2022-10-13T15:42:08.017Z,3.85
2022-10-13T15:44:57.330Z,4.03
2022-10-13T15:47:21.892Z,3.72
2022-10-13T15:49:49.093Z,3.70
2022-10-13T15:52:16.001Z,4.07
2022-10-13T15:54:43.117Z,3.80
2022-10-13T15:57:09.995Z,4.07
2022-10-13T15:59:36.817Z,4.97
2022-10-13T16:02:03.735Z,6.18
2022-10-13T16:04:34.803Z,4.77
2022-10-13T16:07:04.778Z,4.45
2022-10-13T16:09:31.922Z,5.13
2022-10-13T16:11:59.017Z,3.92
2022-10-13T16:14:26.068Z,5.05
2022-10-13T16:16:52.914Z,4.20
2022-10-13T16:19:20.008Z,4.95
2022-10-13T16:21:47.471Z,3.95
2022-10-13T16:24:14.394Z,4.05
2022-10-13T16:26:41.258Z,4.75
2022-10-13T16:29:08.415Z,4.20
2022-10-13T16:31:35.450Z,3.90
2022-10-13T16:34:02.749Z,3.75
2022-10-13T16:36:39.096Z,3.90
2022-10-13T16:39:05.990Z,3.80
2022-10-13T16:41:32.963Z,4.13
2022-10-13T16:44:00.117Z,4.45
2022-10-13T16:46:28.180Z,4.10
2022-10-13T16:48:55.355Z,4.25
2022-10-13T16:51:24.867Z,3.42
2022-10-13T16:53:54.114Z,4.43
2022-10-13T16:56:22.443Z,5.28
2022-10-13T16:58:51.396Z,5.20
2022-10-13T17:01:18.445Z,4.13
2022-10-13T17:03:46.440Z,3.92
2022-10-13T17:06:14.641Z,4.20
2022-10-13T17:08:42.538Z,3.40
2022-10-13T17:11:15.440Z,3.80
2022-10-13T17:13:42.873Z,4.40
2022-10-13T17:16:12.657Z,4.28
2022-10-13T17:18:39.937Z,4.13
2022-10-13T17:21:10.060Z,4.65
2022-10-13T17:23:37.918Z,5.57
2022-10-13T17:26:11.114Z,6.35
2022-10-13T17:28:39.228Z,5.10
2022-10-13T17:31:12.027Z,4.63
2022-10-13T17:33:40.377Z,4.85
2022-10-13T17:36:19.228Z,4.53
2022-10-13T17:38:46.899Z,4.63
2022-10-13T17:41:14.464Z,4.63
2022-10-13T17:43:42.312Z,4.80
2022-10-13T17:46:42.599Z,4.55
2022-10-13T17:49:12.201Z,4.15
2022-10-13T17:51:40.728Z,4.35
2022-10-13T17:54:11.592Z,5.05
2022-10-13T17:56:42.177Z,5.23
2022-10-13T17:59:09.086Z,5.15
2022-10-13T18:01:36.307Z,5.85
2022-10-13T18:04:06.656Z,6.78
2022-10-13T18:06:38.632Z,8.25
2022-10-13T18:09:18.393Z,6.73
2022-10-13T18:11:50.721Z,6.90
2022-10-13T18:14:20.270Z,6.25
2022-10-13T18:16:47.589Z,5.25
2022-10-13T18:19:15.164Z,4.82
2022-10-13T18:21:42.292Z,5.37
2022-10-13T18:24:10.658Z,5.53
2022-10-13T18:26:37.758Z,5.45
2022-10-13T18:29:07.329Z,5.57
2022-10-13T18:31:37.059Z,7.10
2022-10-13T18:34:08.197Z,8.50
2022-10-13T18:36:38.359Z,7.03
2022-10-13T18:39:14.293Z,5.63
2022-10-13T18:41:42.258Z,5.68
2022-10-13T18:44:10.039Z,5.47
2022-10-13T18:46:38.923Z,4.90
2022-10-13T18:49:07.933Z,5.20
2022-10-13T18:51:36.424Z,4.95
2022-10-13T18:54:05.090Z,5.72
2022-10-13T18:56:33.180Z,7.13
2022-10-13T18:59:02.376Z,5.17
2022-10-13T19:01:32.258Z,4.57
2022-10-13T19:03:59.758Z,5.18
2022-10-13T19:06:28.580Z,5.78
2022-10-13T19:09:01.133Z,5.35
2022-10-13T19:11:29.336Z,4.93
2022-10-13T19:13:57.765Z,4.78
2022-10-13T19:16:27.047Z,4.70
2022-10-13T19:18:54.093Z,4.38
2022-10-13T19:21:22.477Z,5.13
2022-10-13T19:23:49.970Z,7.70
2022-10-13T19:26:19.921Z,6.25
2022-10-13T19:28:47.392Z,6.60
2022-10-13T19:31:17.917Z,6.30
2022-10-13T19:33:45.715Z,6.57
2022-10-13T19:36:24.004Z,6.67
2022-10-13T19:38:51.396Z,5.53
2022-10-13T19:41:18.497Z,4.97
2022-10-13T19:43:45.436Z,5.60
2022-10-13T19:46:12.468Z,4.70
2022-10-13T19:48:39.334Z,4.60
2022-10-13T19:51:08.440Z,5.43
2022-10-13T19:53:36.133Z,5.20
2022-10-13T19:56:03.006Z,4.65
2022-10-13T19:58:30.326Z,5.18
2022-10-13T20:01:02.710Z,5.07
2022-10-13T20:03:29.698Z,4.75
2022-10-13T20:06:09.923Z,6.32
2022-10-13T20:08:42.816Z,6.10
2022-10-13T20:11:12.634Z,4.90
2022-10-13T20:13:39.729Z,4.47
2022-10-13T20:16:08.964Z,4.03
2022-10-13T20:18:39.275Z,4.38
2022-10-13T20:21:09.317Z,4.75
2022-10-13T20:23:36.835Z,4.32
2022-10-13T20:26:09.993Z,4.57
2022-10-13T20:28:42.885Z,4.18
2022-10-13T20:31:11.639Z,4.47
2022-10-13T20:33:39.035Z,4.05
2022-10-13T20:36:08.609Z,4.20
2022-10-13T20:38:36.393Z,4.00
2022-10-13T20:41:05.294Z,7.85
2022-10-13T20:43:32.580Z,5.85
2022-10-13T20:46:05.201Z,5.32
2022-10-13T20:48:45.572Z,5.25
2022-10-13T20:51:24.148Z,5.20
2022-10-13T20:53:51.175Z,5.07
2022-10-13T20:56:21.551Z,4.20
2022-10-13T20:58:49.375Z,4.53
2022-10-13T21:01:17.553Z,4.90
2022-10-13T21:03:44.512Z,4.30
2022-10-13T21:06:13.795Z,4.55
2022-10-13T21:08:44.135Z,5.05
2022-10-13T21:11:13.732Z,5.40
2022-10-13T21:13:42.347Z,6.60
2022-10-13T21:16:21.400Z,5.80
2022-10-13T21:18:50.023Z,5.28
2022-10-13T21:21:23.040Z,6.10
2022-10-13T21:23:53.996Z,5.43
2022-10-13T21:26:22.446Z,5.63
2022-10-13T21:28:50.676Z,6.03
2022-10-13T21:31:19.555Z,7.22
2022-10-13T21:33:46.714Z,5.63
2022-10-13T21:36:20.396Z,5.80
2022-10-13T21:38:50.199Z,5.15
2022-10-13T21:41:19.643Z,5.63
2022-10-13T21:43:47.976Z,5.70
2022-10-13T21:46:20.884Z,6.15
2022-10-13T21:48:48.542Z,6.65
2022-10-13T21:51:21.657Z,5.78
2022-10-13T21:53:54.213Z,7.10
2022-10-13T21:56:22.638Z,6.20
2022-10-13T21:58:50.080Z,6.80
2022-10-13T22:01:18.726Z,6.28
2022-10-13T22:03:47.164Z,6.35
2022-10-13T22:06:19.083Z,5.80
2022-10-13T22:08:49.447Z,5.80
2022-10-13T22:11:18.456Z,7.00
2022-10-13T22:13:46.115Z,6.30
2022-10-13T22:16:18.421Z,6.55
2022-10-13T22:18:47.158Z,5.77
2022-10-13T22:21:17.522Z,6.90
2022-10-13T22:23:46.265Z,6.03
2022-10-13T22:26:15.431Z,6.70
2022-10-13T22:28:42.816Z,5.90
2022-10-13T22:31:12.961Z,6.07
2022-10-13T22:33:41.379Z,5.70
2022-10-13T22:36:19.701Z,6.28
2022-10-13T22:38:49.240Z,6.50
2022-10-13T22:41:18.165Z,7.32
2022-10-13T22:43:49.482Z,6.53
2022-10-13T22:46:18.806Z,7.10
2022-10-13T22:48:46.217Z,6.57
2022-10-13T22:51:16.611Z,7.07
2022-10-13T22:53:44.252Z,6.63
2022-10-13T22:56:17.535Z,7.10
2022-10-13T22:58:48.538Z,7.07
2022-10-13T23:01:16.395Z,6.35
2022-10-13T23:03:46.501Z,6.47
2022-10-13T23:06:15.648Z,6.72
2022-10-13T23:08:42.870Z,6.63
2022-10-13T23:11:10.366Z,6.20
2022-10-13T23:13:37.612Z,5.70
2022-10-13T23:16:11.963Z,6.78
2022-10-13T23:18:39.638Z,5.88
2022-10-13T23:21:13.126Z,6.33
2022-10-13T23:23:40.457Z,6.03
2022-10-13T23:26:13.843Z,6.22
2022-10-13T23:28:41.083Z,6.72
2022-10-13T23:31:14.965Z,7.03
2022-10-13T23:33:42.076Z,6.23
2022-10-13T23:36:11.366Z,6.72
2022-10-13T23:38:38.679Z,6.20
2022-10-13T23:41:10.978Z,6.18
2022-10-13T23:43:38.237Z,6.20
2022-10-13T23:46:05.950Z,6.30
2022-10-13T23:48:33.241Z,5.43
2022-10-13T23:51:10.478Z,5.53
2022-10-13T23:53:38.398Z,6.07
2022-10-13T23:56:06.951Z,6.32
2022-10-13T23:58:36.756Z,5.57
